createdAt,value
2018-03-11T00:01:24.050Z,12.60
2018-03-11T00:03:58.645Z,12.17
2018-03-11T00:06:32.429Z,13.70
2018-03-11T00:09:07.068Z,11.77
2018-03-11T00:11:41.037Z,13.60
2018-03-11T00:14:15.724Z,14.07
2018-03-11T00:16:50.560Z,12.60
2018-03-11T00:19:24.272Z,12.40
2018-03-11T00:21:58.266Z,13.50
2018-03-11T00:24:32.188Z,13.50
2018-03-11T00:27:06.807Z,13.67
2018-03-11T00:29:41.031Z,14.40
2018-03-11T00:32:16.332Z,12.10
2018-03-11T00:34:50.359Z,12.27
2018-03-11T00:37:24.226Z,12.37
2018-03-11T00:39:58.084Z,13.20
2018-03-11T00:42:31.901Z,13.77
2018-03-11T00:45:06.529Z,13.17
2018-03-11T00:47:40.655Z,13.97
2018-03-11T00:50:15.226Z,13.47
2018-03-11T00:52:50.129Z,12.73
2018-03-11T00:55:24.307Z,14.57
2018-03-11T00:57:59.361Z,12.53
2018-03-11T01:00:33.334Z,14.30
2018-03-11T01:03:07.070Z,13.73
2018-03-11T01:05:42.608Z,13.17
2018-03-11T01:08:16.669Z,14.57
2018-03-11T01:10:51.125Z,13.50
2018-03-11T01:13:24.942Z,13.47
2018-03-11T01:15:58.574Z,13.13
2018-03-11T01:18:32.280Z,14.00
2018-03-11T01:21:06.085Z,12.80
2018-03-11T01:23:39.853Z,11.53
2018-03-11T01:26:13.791Z,13.50
2018-03-11T01:28:47.862Z,13.50
2018-03-11T01:31:22.409Z,11.87
2018-03-11T01:33:56.139Z,11.53
2018-03-11T01:36:30.826Z,12.60
2018-03-11T01:39:04.842Z,12.70
2018-03-11T01:41:38.684Z,13.00
2018-03-11T01:44:12.562Z,11.73
2018-03-11T01:46:47.198Z,14.97
2018-03-11T01:49:21.313Z,13.80
2018-03-11T01:51:55.845Z,13.07
2018-03-11T01:54:30.530Z,13.67
2018-03-11T01:57:04.406Z,12.87
2018-03-11T01:59:38.157Z,13.13
2018-03-11T02:02:11.930Z,13.23
2018-03-11T02:04:45.723Z,13.50
2018-03-11T02:07:19.589Z,13.57
2018-03-11T02:09:53.221Z,13.80
2018-03-11T02:12:27.172Z,12.57
2018-03-11T02:15:01.186Z,14.03
2018-03-11T02:17:35.150Z,14.20
2018-03-11T02:20:09.729Z,14.17
2018-03-11T02:22:43.650Z,13.60
2018-03-11T02:25:17.512Z,12.70
2018-03-11T02:27:51.350Z,14.17
2018-03-11T02:30:25.975Z,14.57
2018-03-11T02:32:59.864Z,13.13
2018-03-11T02:35:33.727Z,15.60
2018-03-11T02:38:07.598Z,13.67
2018-03-11T02:40:42.436Z,15.03
2018-03-11T02:43:18.263Z,16.10
2018-03-11T02:45:52.338Z,14.50
2018-03-11T02:48:26.313Z,14.50
2018-03-11T02:51:00.212Z,13.93
2018-03-11T02:53:33.967Z,13.47
2018-03-11T02:56:07.818Z,13.70
2018-03-11T02:58:41.857Z,13.73
2018-03-11T03:01:15.606Z,13.07
2018-03-11T03:03:49.329Z,13.10
2018-03-11T03:06:23.128Z,14.50
2018-03-11T03:08:56.927Z,15.03
2018-03-11T03:11:31.742Z,14.20
2018-03-11T03:14:05.856Z,13.60
2018-03-11T03:16:42.186Z,13.70
2018-03-11T03:19:16.274Z,15.43
2018-03-11T03:21:50.694Z,14.70
2018-03-11T03:24:24.668Z,15.30
2018-03-11T03:26:59.305Z,14.97
2018-03-11T03:29:34.159Z,14.70
2018-03-11T03:32:08.246Z,15.53
2018-03-11T03:34:42.944Z,14.97
2018-03-11T03:37:16.829Z,13.70
2018-03-11T03:39:51.324Z,14.33
2018-03-11T03:42:25.448Z,14.73
2018-03-11T03:45:00.776Z,15.70
2018-03-11T03:47:34.909Z,14.77
2018-03-11T03:50:09.513Z,14.10
2018-03-11T03:52:44.435Z,16.13
2018-03-11T03:55:18.550Z,13.67
2018-03-11T03:57:52.480Z,14.70
2018-03-11T04:00:26.292Z,15.03
2018-03-11T04:03:00.031Z,14.63
2018-03-11T04:05:34.685Z,14.10
2018-03-11T04:08:08.703Z,14.30
2018-03-11T04:10:42.289Z,14.90
2018-03-11T04:13:16.010Z,15.13
2018-03-11T04:15:50.354Z,14.67
2018-03-11T04:18:24.466Z,14.77
2018-03-11T04:20:58.990Z,12.97
2018-03-11T04:23:32.712Z,13.20
2018-03-11T04:26:07.344Z,13.77
2018-03-11T04:28:41.154Z,15.47
2018-03-11T04:31:14.883Z,13.90
2018-03-11T04:33:48.657Z,15.73
2018-03-11T04:36:23.235Z,15.20
2018-03-11T04:38:57.177Z,14.87
2018-03-11T04:41:31.909Z,16.03
2018-03-11T04:44:05.836Z,14.97
2018-03-11T04:46:40.297Z,16.40
2018-03-11T04:49:14.244Z,16.57
2018-03-11T04:51:48.045Z,15.83
2018-03-11T04:54:21.828Z,16.20
2018-03-11T04:56:55.440Z,16.60
2018-03-11T04:59:30.178Z,15.10
2018-03-11T05:02:04.114Z,16.73
2018-03-11T05:04:38.022Z,16.30
2018-03-11T05:07:12.327Z,17.60
2018-03-11T05:09:46.108Z,17.10
2018-03-11T05:12:19.888Z,16.50
2018-03-11T05:14:54.428Z,15.37
2018-03-11T05:17:28.849Z,16.20
2018-03-11T05:20:02.771Z,15.27
2018-03-11T05:22:37.391Z,16.57
2018-03-11T05:25:12.841Z,16.00
2018-03-11T05:27:47.161Z,17.03
2018-03-11T05:30:21.755Z,16.03
2018-03-11T05:32:55.687Z,19.03
2018-03-11T05:35:30.328Z,18.10
2018-03-11T05:38:05.046Z,17.43
2018-03-11T05:40:40.011Z,17.90
2018-03-11T05:43:13.925Z,17.30
2018-03-11T05:45:47.695Z,18.30
2018-03-11T05:48:22.402Z,17.60
2018-03-11T05:50:56.410Z,16.03
2018-03-11T05:53:30.508Z,18.70
2018-03-11T05:56:04.358Z,17.43
2018-03-11T05:58:38.282Z,18.37
2018-03-11T06:01:12.256Z,17.30
2018-03-11T06:03:47.013Z,17.00
2018-03-11T06:06:20.833Z,18.30
2018-03-11T06:08:54.549Z,17.77
2018-03-11T06:11:28.426Z,15.73
2018-03-11T06:14:02.189Z,17.87
2018-03-11T06:16:37.046Z,18.37
2018-03-11T06:19:11.846Z,17.60
2018-03-11T06:21:45.958Z,17.27
2018-03-11T06:24:20.466Z,17.17
2018-03-11T06:26:54.986Z,18.10
2018-03-11T06:29:29.638Z,16.93
2018-03-11T06:32:03.585Z,17.43
2018-03-11T06:34:37.573Z,15.80
2018-03-11T06:37:11.213Z,15.20
2018-03-11T06:39:45.164Z,16.60
2018-03-11T06:42:18.762Z,16.20
2018-03-11T06:44:53.385Z,13.90
2018-03-11T06:47:27.255Z,15.27
2018-03-11T06:50:01.690Z,14.27
2018-03-11T06:52:35.842Z,13.67
2018-03-11T06:55:10.225Z,14.40
2018-03-11T06:57:44.989Z,14.20
2018-03-11T07:00:19.803Z,13.67
2018-03-11T07:02:53.814Z,13.80
2018-03-11T07:05:27.674Z,14.10
2018-03-11T07:08:01.512Z,14.73
2018-03-11T07:10:35.488Z,14.33
2018-03-11T07:13:09.324Z,13.40
2018-03-11T07:15:43.062Z,12.97
2018-03-11T07:18:17.007Z,14.97
2018-03-11T07:20:52.182Z,19.40
2018-03-11T07:23:26.573Z,14.17
2018-03-11T07:26:00.440Z,46.87
2018-03-11T07:28:35.101Z,13.57
2018-03-11T07:31:09.030Z,15.10
2018-03-11T07:33:42.800Z,13.83
2018-03-11T07:36:16.697Z,16.03
2018-03-11T07:38:50.525Z,14.90
2018-03-11T07:41:24.315Z,14.20
2018-03-11T07:43:59.017Z,13.83
2018-03-11T07:46:32.634Z,13.80
2018-03-11T07:49:06.478Z,15.10
2018-03-11T07:51:41.851Z,14.10
2018-03-11T07:54:16.046Z,11.10
2018-03-11T07:56:49.756Z,14.10
2018-03-11T07:59:23.582Z,12.93
2018-03-11T08:01:57.399Z,15.90
2018-03-11T08:04:31.244Z,14.87
2018-03-11T08:07:05.061Z,13.60
2018-03-11T08:09:39.428Z,13.40
2018-03-11T08:12:13.763Z,13.50
2018-03-11T08:14:47.454Z,13.25
2018-03-11T08:17:21.905Z,13.20
2018-03-11T08:19:55.747Z,12.93
2018-03-11T08:22:29.565Z,12.60
2018-03-11T08:25:04.329Z,13.47
2018-03-11T08:27:38.629Z,11.93
2018-03-11T08:30:13.148Z,11.93
2018-03-11T08:32:46.974Z,13.23
2018-03-11T08:35:21.098Z,11.60
2018-03-11T08:37:56.294Z,11.60
2018-03-11T08:40:30.725Z,10.57
2018-03-11T08:43:04.559Z,9.80
2018-03-11T08:45:39.271Z,8.60
2018-03-11T08:48:13.362Z,9.37
2018-03-11T08:50:47.305Z,9.70
2018-03-11T08:53:22.146Z,9.20
2018-03-11T08:55:55.929Z,7.53
2018-03-11T08:58:30.508Z,8.50
2018-03-11T09:01:04.370Z,7.80
2018-03-11T09:03:38.977Z,7.30
2018-03-11T09:06:12.725Z,7.00
2018-03-11T09:08:47.529Z,8.20
2018-03-11T09:11:21.438Z,8.03
2018-03-11T09:13:55.759Z,6.80
2018-03-11T09:16:29.723Z,7.63
2018-03-11T09:19:04.905Z,7.97
2018-03-11T09:21:38.882Z,7.60
2018-03-11T09:24:12.739Z,9.47
2018-03-11T09:26:47.105Z,8.77
2018-03-11T09:29:20.810Z,8.00
2018-03-11T09:31:54.526Z,8.20
2018-03-11T09:34:28.456Z,6.93
2018-03-11T09:37:02.926Z,8.00
2018-03-11T09:39:36.833Z,8.00
2018-03-11T09:42:11.475Z,8.07
2018-03-11T09:44:45.731Z,8.43
2018-03-11T09:47:19.622Z,6.90
2018-03-11T09:49:54.219Z,7.90
2018-03-11T09:52:29.249Z,7.23
2018-03-11T09:55:02.977Z,7.37
2018-03-11T09:57:36.810Z,7.60
2018-03-11T10:00:10.667Z,8.83
2018-03-11T10:02:45.303Z,7.07
2018-03-11T10:05:19.368Z,8.47
2018-03-11T10:07:53.975Z,7.63
2018-03-11T10:10:28.601Z,7.70
2018-03-11T10:13:03.225Z,8.20
2018-03-11T10:15:37.205Z,7.90
2018-03-11T10:18:11.739Z,7.57
2018-03-11T10:20:45.531Z,8.37
2018-03-11T10:23:20.706Z,9.90
2018-03-11T10:25:55.821Z,9.90
2018-03-11T10:28:29.725Z,10.50
2018-03-11T10:31:03.530Z,8.90
2018-03-11T10:33:39.071Z,8.77
2018-03-11T10:36:13.166Z,6.90
2018-03-11T10:38:46.797Z,9.33
2018-03-11T10:41:20.644Z,8.60
2018-03-11T10:43:55.191Z,9.23
2018-03-11T10:46:29.401Z,8.63
2018-03-11T10:49:03.964Z,9.30
2018-03-11T10:51:38.696Z,9.40
2018-03-11T10:54:12.665Z,9.27
2018-03-11T10:56:46.525Z,8.77
2018-03-11T10:59:21.065Z,8.47
2018-03-11T11:02:01.480Z,8.53
2018-03-11T11:04:41.978Z,8.40
2018-03-11T11:07:16.514Z,7.57
2018-03-11T11:09:50.375Z,7.80
2018-03-11T11:12:24.117Z,8.63
2018-03-11T11:14:57.915Z,8.17
2018-03-11T11:17:31.532Z,8.80
2018-03-11T11:20:06.174Z,6.97
2018-03-11T11:22:40.099Z,8.30
2018-03-11T11:25:14.987Z,7.13
2018-03-11T11:27:49.979Z,7.47
2018-03-11T11:30:23.750Z,6.13
2018-03-11T11:32:57.457Z,6.10
2018-03-11T11:35:31.430Z,6.40
2018-03-11T11:38:04.954Z,5.73
2018-03-11T11:40:40.301Z,6.80
2018-03-11T11:43:14.552Z,6.20
2018-03-11T11:45:48.228Z,7.00
2018-03-11T11:48:23.151Z,6.40
2018-03-11T11:50:56.903Z,6.73
2018-03-11T11:53:30.631Z,7.33
2018-03-11T11:56:05.436Z,6.77
2018-03-11T11:58:40.327Z,6.67
2018-03-11T12:01:14.976Z,7.37
2018-03-11T12:03:49.121Z,6.73
2018-03-11T12:06:22.924Z,8.33
2018-03-11T12:08:57.539Z,6.97
2018-03-11T12:11:31.795Z,7.03
2018-03-11T12:14:05.564Z,7.73
2018-03-11T12:16:39.972Z,7.17
2018-03-11T12:19:14.253Z,6.83
2018-03-11T12:21:48.073Z,7.73
2018-03-11T12:24:23.440Z,7.50
2018-03-11T12:26:58.383Z,7.57
2018-03-11T12:29:32.422Z,7.47
2018-03-11T12:32:07.014Z,8.57
2018-03-11T12:34:41.181Z,8.57
2018-03-11T12:37:16.319Z,7.13
2018-03-11T12:39:50.588Z,7.40
2018-03-11T12:42:25.268Z,7.63
2018-03-11T12:45:00.101Z,8.50
2018-03-11T12:47:34.101Z,9.20
2018-03-11T12:50:08.637Z,8.83
2018-03-11T12:52:42.511Z,8.97
2018-03-11T12:55:17.134Z,8.50
2018-03-11T12:57:51.058Z,8.57
2018-03-11T13:00:24.881Z,9.37
2018-03-11T13:02:59.580Z,10.40
2018-03-11T13:05:33.221Z,9.57
2018-03-11T13:08:07.506Z,9.63
2018-03-11T13:10:41.934Z,12.20
2018-03-11T13:13:15.866Z,10.43
2018-03-11T13:15:49.740Z,10.03
2018-03-11T13:18:23.757Z,9.30
2018-03-11T13:21:04.451Z,10.80
2018-03-11T13:23:39.617Z,11.40
2018-03-11T13:26:13.637Z,9.40
2018-03-11T13:28:48.764Z,10.30
2018-03-11T13:31:23.399Z,9.60
2018-03-11T13:34:09.689Z,13.57
2018-03-11T13:36:43.326Z,11.20
2018-03-11T13:39:28.977Z,14.80
2018-03-11T13:42:04.145Z,9.93
2018-03-11T13:44:37.928Z,9.93
2018-03-11T13:47:11.791Z,10.77
2018-03-11T13:49:46.452Z,9.67
2018-03-11T13:52:32.503Z,10.97
2018-03-11T13:55:06.717Z,10.53
2018-03-11T14:00:43.045Z,11.43
2018-03-11T14:03:16.896Z,10.83
2018-03-11T14:05:51.070Z,10.77
2018-03-11T14:08:24.770Z,10.37
2018-03-11T14:10:58.918Z,9.60
2018-03-11T14:13:32.983Z,10.60
2018-03-11T14:16:07.650Z,10.20
2018-03-11T14:18:41.847Z,9.47
2018-03-11T14:21:15.777Z,10.80
2018-03-11T14:23:49.538Z,10.43
2018-03-11T14:26:24.116Z,10.67
2018-03-11T14:28:58.473Z,10.10
2018-03-11T14:31:33.052Z,9.53
2018-03-11T14:34:07.047Z,11.00
2018-03-11T14:36:40.942Z,9.67
2018-03-11T14:39:14.825Z,8.47
2018-03-11T14:41:48.684Z,10.17
2018-03-11T14:44:22.333Z,10.30
2018-03-11T14:46:57.320Z,10.20
2018-03-11T14:49:31.335Z,9.63
2018-03-11T14:52:05.186Z,10.33
2018-03-11T14:54:39.014Z,9.33
2018-03-11T14:57:12.923Z,9.97
2018-03-11T14:59:47.349Z,8.97
2018-03-11T15:02:22.561Z,7.33
2018-03-11T15:04:57.093Z,9.20
2018-03-11T15:07:30.796Z,9.40
2018-03-11T15:10:05.459Z,9.57
2018-03-11T15:12:39.458Z,9.83
2018-03-11T15:15:13.450Z,10.93
2018-03-11T15:17:47.401Z,10.97
2018-03-11T15:20:22.205Z,11.30
2018-03-11T15:22:56.336Z,10.70
2018-03-11T15:25:30.312Z,11.07
2018-03-11T15:28:04.912Z,11.27
2018-03-11T15:30:39.174Z,12.00
2018-03-11T15:33:13.099Z,10.60
2018-03-11T15:35:47.280Z,11.80
2018-03-11T15:38:21.885Z,9.77
2018-03-11T15:40:56.145Z,12.10
2018-03-11T15:43:30.152Z,11.73
2018-03-11T15:46:04.087Z,11.37
2018-03-11T15:48:38.984Z,12.83
2018-03-11T15:51:14.102Z,11.83
2018-03-11T15:53:49.265Z,12.97
2018-03-11T15:56:24.593Z,13.30
2018-03-11T15:58:58.177Z,15.00
2018-03-11T16:01:32.507Z,12.13
2018-03-11T16:04:06.694Z,12.30
2018-03-11T16:06:41.770Z,12.53
2018-03-11T16:09:16.922Z,11.63
2018-03-11T16:11:52.128Z,11.13
2018-03-11T16:14:26.125Z,11.40
2018-03-11T16:17:00.253Z,10.37
2018-03-11T16:19:34.665Z,8.83
2018-03-11T16:22:08.757Z,11.30
2018-03-11T16:24:43.287Z,11.40
2018-03-11T16:27:18.389Z,10.00
2018-03-11T16:29:52.730Z,13.50
2018-03-11T16:32:26.544Z,19.03
2018-03-11T16:35:01.284Z,9.60
2018-03-11T16:37:35.465Z,9.60
2018-03-11T16:40:09.456Z,11.20
2018-03-11T16:42:43.355Z,10.40
2018-03-11T16:45:17.436Z,10.83
2018-03-11T16:47:52.055Z,10.93
2018-03-11T16:50:26.514Z,11.70
2018-03-11T16:53:01.886Z,9.97
2018-03-11T16:55:37.164Z,10.13
2018-03-11T16:58:11.334Z,10.23
2018-03-11T17:00:45.620Z,11.00
2018-03-11T17:03:19.656Z,11.80
2018-03-11T17:05:53.685Z,10.90
2018-03-11T17:08:28.259Z,11.87
2018-03-11T17:11:02.462Z,11.83
2018-03-11T17:13:36.905Z,11.67
2018-03-11T17:16:11.079Z,14.27
2018-03-11T17:18:44.930Z,48.47
2018-03-11T17:21:18.695Z,14.80
2018-03-11T17:23:53.277Z,13.10
2018-03-11T17:26:27.219Z,13.10
2018-03-11T17:29:01.111Z,12.03
2018-03-11T17:31:35.033Z,12.43
2018-03-11T17:34:09.724Z,13.40
2018-03-11T17:36:44.022Z,13.50
2018-03-11T17:39:18.674Z,13.00
2018-03-11T17:41:52.599Z,12.10
2018-03-11T17:44:26.370Z,12.70
2018-03-11T17:47:00.504Z,13.20
2018-03-11T17:49:35.084Z,13.95
2018-03-11T17:52:09.235Z,13.23
2018-03-11T17:54:44.327Z,15.17
2018-03-11T17:57:18.601Z,15.30
2018-03-11T17:59:52.460Z,15.97
2018-03-11T18:02:26.999Z,13.83
2018-03-11T18:05:01.093Z,15.30
2018-03-11T18:07:35.734Z,14.27
2018-03-11T18:10:09.858Z,12.70
2018-03-11T18:12:43.688Z,16.33
2018-03-11T18:15:17.958Z,15.47
2018-03-11T18:17:52.509Z,13.80
2018-03-11T18:20:28.462Z,14.70
2018-03-11T18:23:02.993Z,12.90
2018-03-11T18:25:37.409Z,14.20
2018-03-11T18:28:12.018Z,14.60
2018-03-11T18:30:46.651Z,14.27
2018-03-11T18:33:21.025Z,14.93
2018-03-11T18:35:56.313Z,15.67
2018-03-11T18:38:30.274Z,13.30
2018-03-11T18:41:04.147Z,14.80
2018-03-11T18:43:38.512Z,15.13
2018-03-11T18:46:13.411Z,14.80
2018-03-11T18:48:47.419Z,15.33
2018-03-11T18:51:22.135Z,22.03
2018-03-11T18:53:56.844Z,15.60
2018-03-11T18:56:31.560Z,15.20
2018-03-11T18:59:05.595Z,15.00
2018-03-11T19:01:39.471Z,15.47
2018-03-11T19:04:14.101Z,16.60
2018-03-11T19:06:48.106Z,17.00
2018-03-11T19:09:21.968Z,15.50
2018-03-11T19:11:56.768Z,16.10
2018-03-11T19:14:31.677Z,16.60
2018-03-11T19:17:05.922Z,14.77
2018-03-11T19:19:39.841Z,16.13
2018-03-11T19:22:15.367Z,15.53
2018-03-11T19:24:49.470Z,16.00
2018-03-11T19:27:23.143Z,16.20
2018-03-11T19:29:58.090Z,22.50
2018-03-11T19:32:32.604Z,12.40
2018-03-11T19:35:06.298Z,25.70
2018-03-11T19:37:40.137Z,9.60
2018-03-11T19:40:13.771Z,9.53
2018-03-11T19:42:47.547Z,8.23
2018-03-11T19:45:21.960Z,8.17
2018-03-11T19:47:55.949Z,8.80
2018-03-11T19:50:29.782Z,8.30
2018-03-11T19:53:04.307Z,8.40
2018-03-11T19:55:38.134Z,7.90
2018-03-11T19:58:11.851Z,7.37
2018-03-11T20:00:46.527Z,6.77
2018-03-11T20:03:20.327Z,6.07
2018-03-11T20:05:53.933Z,5.40
2018-03-11T20:08:28.698Z,6.00
2018-03-11T20:11:03.990Z,5.10
2018-03-11T20:13:38.776Z,5.50
2018-03-11T20:16:12.988Z,4.00
2018-03-11T20:18:47.694Z,4.10
2018-03-11T20:21:21.890Z,7.03
2018-03-11T20:23:55.812Z,4.03
2018-03-11T20:26:31.491Z,5.70
2018-03-11T20:29:05.654Z,3.87
2018-03-11T20:31:39.585Z,3.80
2018-03-11T20:34:13.674Z,4.30
2018-03-11T20:36:47.313Z,4.30
2018-03-11T20:39:23.202Z,4.07
2018-03-11T20:41:58.678Z,4.57
2018-03-11T20:44:33.806Z,5.07
2018-03-11T20:47:08.146Z,5.60
2018-03-11T20:49:42.530Z,5.60
2018-03-11T20:52:16.904Z,5.47
2018-03-11T20:54:51.331Z,6.70
2018-03-11T20:57:25.065Z,4.83
2018-03-11T20:59:59.025Z,4.37
2018-03-11T21:02:36.060Z,5.00
2018-03-11T21:05:10.165Z,4.83
2018-03-11T21:07:45.854Z,6.17
2018-03-11T21:10:21.623Z,5.80
2018-03-11T21:12:56.390Z,4.97
2018-03-11T21:15:30.647Z,6.23
2018-03-11T21:18:04.370Z,5.73
2018-03-11T21:20:38.232Z,6.07
2018-03-11T21:23:12.889Z,5.60
2018-03-11T21:25:46.783Z,5.80
2018-03-11T21:28:21.530Z,6.00
2018-03-11T21:30:59.875Z,6.67
2018-03-11T21:33:34.655Z,8.57
2018-03-11T21:36:09.045Z,8.17
2018-03-11T21:38:42.722Z,7.87
2018-03-11T21:41:16.738Z,7.17
2018-03-11T21:43:50.533Z,6.27
2018-03-11T21:46:24.304Z,5.80
2018-03-11T21:48:58.674Z,5.30
2018-03-11T21:51:33.779Z,4.90
2018-03-11T21:54:09.090Z,6.77
2018-03-11T21:56:44.168Z,5.83
2018-03-11T21:59:20.013Z,5.70
2018-03-11T22:01:53.794Z,5.87
2018-03-11T22:04:27.483Z,5.90
2018-03-11T22:07:02.259Z,6.33
2018-03-11T22:09:36.279Z,6.33
2018-03-11T22:12:10.787Z,5.90
2018-03-11T22:14:44.944Z,6.40
2018-03-11T22:17:20.621Z,6.50
2018-03-11T22:19:55.072Z,6.87
2018-03-11T22:22:29.808Z,6.97
2018-03-11T22:25:03.723Z,7.50
2018-03-11T22:27:37.759Z,7.83
2018-03-11T22:30:12.527Z,8.30
2018-03-11T22:32:47.906Z,7.50
2018-03-11T22:35:22.000Z,8.93
2018-03-11T22:37:56.209Z,9.47
2018-03-11T22:40:29.910Z,9.97
2018-03-11T22:43:03.935Z,9.40
2018-03-11T22:45:38.032Z,9.50
2018-03-11T22:48:12.003Z,8.37
2018-03-11T22:50:45.966Z,9.43
2018-03-11T22:53:20.071Z,8.93
2018-03-11T22:55:54.757Z,9.37
2018-03-11T22:58:30.353Z,9.37
2018-03-11T23:01:05.811Z,8.80
2018-03-11T23:03:40.953Z,8.83
2018-03-11T23:06:15.540Z,8.40
2018-03-11T23:08:49.874Z,9.47
2018-03-11T23:11:25.241Z,9.43
2018-03-11T23:13:59.395Z,10.70
2018-03-11T23:16:33.452Z,9.90
2018-03-11T23:19:19.521Z,10.20
2018-03-11T23:21:53.519Z,8.23
2018-03-11T23:24:28.113Z,9.40
2018-03-11T23:27:02.401Z,10.03
2018-03-11T23:29:38.069Z,10.13
2018-03-11T23:32:13.145Z,9.80
2018-03-11T23:34:48.330Z,9.73
2018-03-11T23:37:22.324Z,9.30
2018-03-11T23:39:56.378Z,9.93
2018-03-11T23:42:31.042Z,9.10
2018-03-11T23:45:06.208Z,9.20
2018-03-11T23:47:40.477Z,9.37
2018-03-11T23:50:14.349Z,9.47
2018-03-11T23:52:49.148Z,10.43
2018-03-11T23:55:23.333Z,8.77
2018-03-11T23:57:57.995Z,10.73
